sensor_id;sensor_type;location;lat;lon;timestamp;pressure;altitude;pressure_sealevel;temperature;humidity
66484;BME280;53299;52.160;7.556;2022-12-11T00:00:36;100709.88;;;15.62;39.73
66484;BME280;53299;52.160;7.556;2022-12-11T00:03:02;100706.25;;;15.63;39.81
66484;BME280;53299;52.160;7.556;2022-12-11T00:05:27;100703.75;;;15.61;39.93
66484;BME280;53299;52.160;7.556;2022-12-11T00:07:52;100704.59;;;15.62;39.97
66484;BME280;53299;52.160;7.556;2022-12-11T00:10:18;100707.22;;;15.62;39.87
66484;BME280;53299;52.160;7.556;2022-12-11T00:12:43;100704.59;;;15.62;39.85
66484;BME280;53299;52.160;7.556;2022-12-11T00:15:08;100702.94;;;15.61;39.75
66484;BME280;53299;52.160;7.556;2022-12-11T00:17:34;100703.75;;;15.61;39.93
66484;BME280;53299;52.160;7.556;2022-12-11T00:19:59;100695.81;;;15.61;39.85
66484;BME280;53299;52.160;7.556;2022-12-11T00:22:24;100697.66;;;15.61;39.72
66484;BME280;53299;52.160;7.556;2022-12-11T00:24:50;100698.47;;;15.61;39.73
66484;BME280;53299;52.160;7.556;2022-12-11T00:27:15;100702.94;;;15.61;39.92
66484;BME280;53299;52.160;7.556;2022-12-11T00:29:41;100695.97;;;15.60;39.84
66484;BME280;53299;52.160;7.556;2022-12-11T00:32:06;100695.97;;;15.60;39.73
66484;BME280;53299;52.160;7.556;2022-12-11T00:34:31;100700.44;;;15.59;39.91
66484;BME280;53299;52.160;7.556;2022-12-11T00:36:56;100700.28;;;15.61;39.80
66484;BME280;53299;52.160;7.556;2022-12-11T00:39:22;100700.44;;;15.59;39.87
66484;BME280;53299;52.160;7.556;2022-12-11T00:41:47;100695.16;;;15.59;39.82
66484;BME280;53299;52.160;7.556;2022-12-11T00:44:12;100704.72;;;15.60;39.63
66484;BME280;53299;52.160;7.556;2022-12-11T00:46:37;100696.78;;;15.60;39.74
66484;BME280;53299;52.160;7.556;2022-12-11T00:49:03;100695.97;;;15.60;39.67
66484;BME280;53299;52.160;7.556;2022-12-11T00:51:28;100702.25;;;15.59;40.06
66484;BME280;53299;52.160;7.556;2022-12-11T00:53:53;100703.91;;;15.60;39.73
66484;BME280;53299;52.160;7.556;2022-12-11T00:56:20;100706.72;;;15.58;39.87
66484;BME280;53299;52.160;7.556;2022-12-11T00:58:47;100712.03;;;15.58;39.82
66484;BME280;53299;52.160;7.556;2022-12-11T01:01:21;100704.09;;;15.58;39.72
66484;BME280;53299;52.160;7.556;2022-12-11T01:03:47;100710.19;;;15.59;39.76
66484;BME280;53299;52.160;7.556;2022-12-11T01:06:18;100712.16;;;15.57;39.68
66484;BME280;53299;52.160;7.556;2022-12-11T01:08:44;100706.72;;;15.58;39.90
66484;BME280;53299;52.160;7.556;2022-12-11T01:11:13;100716.47;;;15.58;39.73
66484;BME280;53299;52.160;7.556;2022-12-11T01:13:39;100706.72;;;15.58;39.69
66484;BME280;53299;52.160;7.556;2022-12-11T01:16:09;100707.69;;;15.57;39.72
66484;BME280;53299;52.160;7.556;2022-12-11T01:18:34;100707.56;;;15.59;39.67
66484;BME280;53299;52.160;7.556;2022-12-11T01:21:08;100698.78;;;15.58;39.64
66484;BME280;53299;52.160;7.556;2022-12-11T01:23:34;100705.06;;;15.57;39.64
66484;BME280;53299;52.160;7.556;2022-12-11T01:26:12;100706.88;;;15.57;39.72
66484;BME280;53299;52.160;7.556;2022-12-11T01:28:38;100709.53;;;15.57;39.81
66484;BME280;53299;52.160;7.556;2022-12-11T01:31:11;100708.53;;;15.58;39.71
66484;BME280;53299;52.160;7.556;2022-12-11T01:33:37;100703.22;;;15.58;39.51
66484;BME280;53299;52.160;7.556;2022-12-11T01:36:16;100707.69;;;15.57;39.76
66484;BME280;53299;52.160;7.556;2022-12-11T01:38:43;100705.06;;;15.57;39.76
66484;BME280;53299;52.160;7.556;2022-12-11T01:41:09;100713.00;;;15.57;39.64
66484;BME280;53299;52.160;7.556;2022-12-11T01:43:34;100710.34;;;15.57;39.64
66484;BME280;53299;52.160;7.556;2022-12-11T01:46:00;100712.16;;;15.57;39.61
66484;BME280;53299;52.160;7.556;2022-12-11T01:48:28;100719.28;;;15.56;39.57
66484;BME280;53299;52.160;7.556;2022-12-11T01:50:57;100721.94;;;15.56;39.53
66484;BME280;53299;52.160;7.556;2022-12-11T01:53:27;100712.16;;;15.57;39.57
66484;BME280;53299;52.160;7.556;2022-12-11T01:55:54;100712.16;;;15.57;39.60
66484;BME280;53299;52.160;7.556;2022-12-11T01:58:22;100712.31;;;15.55;39.69
66484;BME280;53299;52.160;7.556;2022-12-11T02:00:50;100710.53;;;15.56;39.55
66484;BME280;53299;52.160;7.556;2022-12-11T02:03:16;100712.16;;;15.57;39.54
66484;BME280;53299;52.160;7.556;2022-12-11T02:05:42;100714.00;;;15.56;39.49
66484;BME280;53299;52.160;7.556;2022-12-11T02:08:07;100707.88;;;15.56;39.60
66484;BME280;53299;52.160;7.556;2022-12-11T02:10:48;100710.53;;;15.56;39.65
66484;BME280;53299;52.160;7.556;2022-12-11T02:13:28;100703.56;;;15.55;39.45
66484;BME280;53299;52.160;7.556;2022-12-11T02:16:09;100711.34;;;15.56;39.49
66484;BME280;53299;52.160;7.556;2022-12-11T02:18:47;100704.38;;;15.55;39.53
66484;BME280;53299;52.160;7.556;2022-12-11T02:21:27;100701.91;;;15.54;39.45
66484;BME280;53299;52.160;7.556;2022-12-11T02:29:19;100705.38;;;15.54;39.62
66484;BME280;53299;52.160;7.556;2022-12-11T02:31:58;100695.63;;;15.55;39.51
66484;BME280;53299;52.160;7.556;2022-12-11T02:37:04;100702.72;;;15.54;39.34
66484;BME280;53299;52.160;7.556;2022-12-11T02:39:32;100702.72;;;15.54;39.24
66484;BME280;53299;52.160;7.556;2022-12-11T02:42:00;100699.25;;;15.54;39.61
66484;BME280;53299;52.160;7.556;2022-12-11T02:44:29;100703.56;;;15.55;39.43
66484;BME280;53299;52.160;7.556;2022-12-11T02:46:58;100709.84;;;15.54;39.47
66484;BME280;53299;52.160;7.556;2022-12-11T02:49:25;100708.03;;;15.54;39.44
66484;BME280;53299;52.160;7.556;2022-12-11T02:51:53;100713.31;;;15.54;39.32
66484;BME280;53299;52.160;7.556;2022-12-11T02:54:24;100709.03;;;15.53;39.55
66484;BME280;53299;52.160;7.556;2022-12-11T02:57:05;100714.13;;;15.55;39.52
66484;BME280;53299;52.160;7.556;2022-12-11T02:59:38;100709.84;;;15.54;39.56
66484;BME280;53299;52.160;7.556;2022-12-11T03:02:04;100708.03;;;15.54;39.43
66484;BME280;53299;52.160;7.556;2022-12-11T03:04:30;100706.38;;;15.53;39.29
66484;BME280;53299;52.160;7.556;2022-12-11T03:07:02;100705.53;;;15.53;39.37
66484;BME280;53299;52.160;7.556;2022-12-11T03:09:28;100708.16;;;15.53;39.39
66484;BME280;53299;52.160;7.556;2022-12-11T03:11:53;100702.88;;;15.53;39.38
66484;BME280;53299;52.160;7.556;2022-12-11T03:14:19;100705.53;;;15.53;39.53
66484;BME280;53299;52.160;7.556;2022-12-11T03:16:57;100702.06;;;15.52;39.30
66484;BME280;53299;52.160;7.556;2022-12-11T03:22:18;100694.13;;;15.52;39.37
66484;BME280;53299;52.160;7.556;2022-12-11T03:24:55;100700.22;;;15.53;39.31
66484;BME280;53299;52.160;7.556;2022-12-11T03:27:35;100698.59;;;15.52;39.45
66484;BME280;53299;52.160;7.556;2022-12-11T03:30:04;100703.72;;;15.53;39.49
66484;BME280;53299;52.160;7.556;2022-12-11T03:32:37;100695.94;;;15.52;39.33
66484;BME280;53299;52.160;7.556;2022-12-11T03:37:34;100702.06;;;15.52;39.27
66484;BME280;53299;52.160;7.556;2022-12-11T03:40:05;100703.88;;;15.52;39.26
66484;BME280;53299;52.160;7.556;2022-12-11T03:42:33;100702.19;;;15.51;39.34
66484;BME280;53299;52.160;7.556;2022-12-11T03:45:01;100703.06;;;15.51;39.27
66484;BME280;53299;52.160;7.556;2022-12-11T03:47:28;100696.91;;;15.51;39.18
66484;BME280;53299;52.160;7.556;2022-12-11T03:49:55;100691.63;;;15.51;39.31
66484;BME280;53299;52.160;7.556;2022-12-11T03:52:22;100686.31;;;15.51;39.31
66484;BME280;53299;52.160;7.556;2022-12-11T03:54:48;100692.47;;;15.51;39.15
66484;BME280;53299;52.160;7.556;2022-12-11T03:57:17;100690.66;;;15.52;38.96
66484;BME280;53299;52.160;7.556;2022-12-11T03:59:45;100680.22;;;15.50;39.24
66484;BME280;53299;52.160;7.556;2022-12-11T04:02:10;100681.03;;;15.51;39.30
66484;BME280;53299;52.160;7.556;2022-12-11T04:04:40;100688.16;;;15.50;39.30
66484;BME280;53299;52.160;7.556;2022-12-11T04:07:06;100682.03;;;15.50;39.27
66484;BME280;53299;52.160;7.556;2022-12-11T04:09:32;100677.75;;;15.49;39.18
66484;BME280;53299;52.160;7.556;2022-12-11T04:11:57;100679.38;;;15.50;39.10
66484;BME280;53299;52.160;7.556;2022-12-11T04:14:23;100682.03;;;15.50;39.24
66484;BME280;53299;52.160;7.556;2022-12-11T04:16:49;100682.84;;;15.50;39.13
66484;BME280;53299;52.160;7.556;2022-12-11T04:19:14;100684.69;;;15.50;39.13
66484;BME280;53299;52.160;7.556;2022-12-11T04:21:40;100684.69;;;15.50;39.02
66484;BME280;53299;52.160;7.556;2022-12-11T04:24:05;100687.19;;;15.51;39.08
66484;BME280;53299;52.160;7.556;2022-12-11T04:26:31;100687.31;;;15.50;39.05
66484;BME280;53299;52.160;7.556;2022-12-11T04:28:56;100682.84;;;15.50;39.21
66484;BME280;53299;52.160;7.556;2022-12-11T04:31:21;100683.69;;;15.51;39.05
66484;BME280;53299;52.160;7.556;2022-12-11T04:33:46;100686.31;;;15.51;39.08
66484;BME280;53299;52.160;7.556;2022-12-11T04:36:12;100682.84;;;15.50;39.11
66484;BME280;53299;52.160;7.556;2022-12-11T04:38:38;100688.16;;;15.50;39.11
66484;BME280;53299;52.160;7.556;2022-12-11T04:41:08;100686.50;;;15.49;39.00
66484;BME280;53299;52.160;7.556;2022-12-11T04:43:35;100680.22;;;15.50;39.01
66484;BME280;53299;52.160;7.556;2022-12-11T04:48:37;100678.38;;;15.51;39.27
66484;BME280;53299;52.160;7.556;2022-12-11T04:51:03;100677.75;;;15.49;39.06
66484;BME280;53299;52.160;7.556;2022-12-11T04:53:29;100675.75;;;15.51;39.10
66484;BME280;53299;52.160;7.556;2022-12-11T04:55:54;100676.59;;;15.51;39.10
66484;BME280;53299;52.160;7.556;2022-12-11T04:58:20;100675.75;;;15.51;39.01
66484;BME280;53299;52.160;7.556;2022-12-11T05:00:46;100674.91;;;15.50;39.03
66484;BME280;53299;52.160;7.556;2022-12-11T05:03:11;100668.81;;;15.50;39.09
66484;BME280;53299;52.160;7.556;2022-12-11T05:05:37;100672.28;;;15.50;39.21
66484;BME280;53299;52.160;7.556;2022-12-11T05:08:02;100666.97;;;15.50;39.11
66484;BME280;53299;52.160;7.556;2022-12-11T05:10:28;100668.81;;;15.50;39.06
66484;BME280;53299;52.160;7.556;2022-12-11T05:12:53;100668.81;;;15.50;39.20
66484;BME280;53299;52.160;7.556;2022-12-11T05:15:18;100666.16;;;15.50;39.19
66484;BME280;53299;52.160;7.556;2022-12-11T05:17:43;100665.34;;;15.49;38.95
66484;BME280;53299;52.160;7.556;2022-12-11T05:20:09;100668.81;;;15.50;39.11
66484;BME280;53299;52.160;7.556;2022-12-11T05:22:35;100672.44;;;15.49;39.18
66484;BME280;53299;52.160;7.556;2022-12-11T05:25:01;100663.66;;;15.48;38.97
66484;BME280;53299;52.160;7.556;2022-12-11T05:27:26;100666.31;;;15.48;39.00
66484;BME280;53299;52.160;7.556;2022-12-11T05:29:51;100667.16;;;15.49;38.90
66484;BME280;53299;52.160;7.556;2022-12-11T05:32:17;100656.56;;;15.49;38.95
66484;BME280;53299;52.160;7.556;2022-12-11T05:34:42;100666.31;;;15.48;38.94
66484;BME280;53299;52.160;7.556;2022-12-11T05:37:07;100649.59;;;15.48;39.16
66484;BME280;53299;52.160;7.556;2022-12-11T05:39:32;100656.56;;;15.49;39.01
66484;BME280;53299;52.160;7.556;2022-12-11T05:41:58;100654.06;;;15.47;38.97
66484;BME280;53299;52.160;7.556;2022-12-11T05:44:23;100648.78;;;15.47;38.98
66484;BME280;53299;52.160;7.556;2022-12-11T05:46:49;100650.44;;;15.48;38.83
66484;BME280;53299;52.160;7.556;2022-12-11T05:49:14;100644.50;;;15.46;38.98
66484;BME280;53299;52.160;7.556;2022-12-11T05:51:39;100650.59;;;15.47;38.91
66484;BME280;53299;52.160;7.556;2022-12-11T05:54:04;100653.25;;;15.47;38.97
66484;BME280;53299;52.160;7.556;2022-12-11T05:56:32;100652.25;;;15.48;38.91
66484;BME280;53299;52.160;7.556;2022-12-11T05:58:59;100661.19;;;15.47;38.87
66484;BME280;53299;52.160;7.556;2022-12-11T06:03:55;100668.94;;;15.48;39.10
66484;BME280;53299;52.160;7.556;2022-12-11T06:06:21;100658.53;;;15.47;38.99
66484;BME280;53299;52.160;7.556;2022-12-11T06:08:54;100652.25;;;15.48;38.95
66484;BME280;53299;52.160;7.556;2022-12-11T06:11:22;100652.25;;;15.48;38.86
66484;BME280;53299;52.160;7.556;2022-12-11T06:13:47;100654.91;;;15.48;39.03
66484;BME280;53299;52.160;7.556;2022-12-11T06:16:13;100655.72;;;15.48;38.89
66484;BME280;53299;52.160;7.556;2022-12-11T06:18:40;100651.44;;;15.47;38.99
66484;BME280;53299;52.160;7.556;2022-12-11T06:21:14;100652.25;;;15.48;38.92
66484;BME280;53299;52.160;7.556;2022-12-11T06:23:40;100647.78;;;15.48;38.97
66484;BME280;53299;52.160;7.556;2022-12-11T06:26:06;100636.38;;;15.48;38.84
66484;BME280;53299;52.160;7.556;2022-12-11T06:28:31;100639.03;;;15.48;39.04
66484;BME280;53299;52.160;7.556;2022-12-11T06:30:58;100646.97;;;15.48;38.98
66484;BME280;53299;52.160;7.556;2022-12-11T06:33:23;100646.97;;;15.48;38.90
66484;BME280;53299;52.160;7.556;2022-12-11T06:35:48;100641.69;;;15.48;39.05
66484;BME280;53299;52.160;7.556;2022-12-11T06:38:13;100650.44;;;15.48;38.79
66484;BME280;53299;52.160;7.556;2022-12-11T06:40:39;100639.84;;;15.48;39.04
66484;BME280;53299;52.160;7.556;2022-12-11T06:43:04;100637.22;;;15.48;38.96
66484;BME280;53299;52.160;7.556;2022-12-11T06:45:29;100639.03;;;15.48;38.95
66484;BME280;53299;52.160;7.556;2022-12-11T06:47:54;100634.56;;;15.48;38.94
66484;BME280;53299;52.160;7.556;2022-12-11T06:50:19;100644.31;;;15.48;38.97
66484;BME280;53299;52.160;7.556;2022-12-11T06:52:45;100643.50;;;15.47;38.86
66484;BME280;53299;52.160;7.556;2022-12-11T06:55:10;100644.31;;;15.48;38.96
66484;BME280;53299;52.160;7.556;2022-12-11T06:57:35;100635.56;;;15.47;38.79
66484;BME280;53299;52.160;7.556;2022-12-11T07:00:00;100643.50;;;15.47;38.89
66484;BME280;53299;52.160;7.556;2022-12-11T07:02:26;100650.44;;;15.48;38.62
66484;BME280;53299;52.160;7.556;2022-12-11T07:04:51;100644.31;;;15.48;38.75
66484;BME280;53299;52.160;7.556;2022-12-11T07:07:16;100649.59;;;15.48;38.80
66484;BME280;53299;52.160;7.556;2022-12-11T07:09:41;100646.97;;;15.48;38.99
66484;BME280;53299;52.160;7.556;2022-12-11T07:12:07;100651.28;;;15.49;38.98
66484;BME280;53299;52.160;7.556;2022-12-11T07:14:32;100657.53;;;15.48;38.94
66484;BME280;53299;52.160;7.556;2022-12-11T07:16:58;100652.25;;;15.48;38.89
66484;BME280;53299;52.160;7.556;2022-12-11T07:19:24;100660.19;;;15.48;38.88
66484;BME280;53299;52.160;7.556;2022-12-11T07:21:49;100665.47;;;15.48;39.05
66484;BME280;53299;52.160;7.556;2022-12-11T07:24:14;100657.53;;;15.48;39.02
66484;BME280;53299;52.160;7.556;2022-12-11T07:26:40;100654.91;;;15.48;38.91
66484;BME280;53299;52.160;7.556;2022-12-11T07:29:05;100660.19;;;15.48;38.79
66484;BME280;53299;52.160;7.556;2022-12-11T07:31:31;100660.19;;;15.48;38.94
66484;BME280;53299;52.160;7.556;2022-12-11T07:33:59;100651.44;;;15.47;38.76
66484;BME280;53299;52.160;7.556;2022-12-11T07:36:25;100654.06;;;15.47;38.81
66484;BME280;53299;52.160;7.556;2022-12-11T07:38:50;100657.72;;;15.46;38.74
66484;BME280;53299;52.160;7.556;2022-12-11T07:41:16;100653.25;;;15.47;38.84
66484;BME280;53299;52.160;7.556;2022-12-11T07:43:41;100653.25;;;15.47;38.74
66484;BME280;53299;52.160;7.556;2022-12-11T07:46:13;100653.25;;;15.47;38.74
66484;BME280;53299;52.160;7.556;2022-12-11T07:48:40;100650.59;;;15.47;38.75
66484;BME280;53299;52.160;7.556;2022-12-11T07:51:12;100652.44;;;15.46;38.71
66484;BME280;53299;52.160;7.556;2022-12-11T07:53:38;100658.69;;;15.45;38.70
66484;BME280;53299;52.160;7.556;2022-12-11T07:56:03;100663.00;;;15.46;38.92
66484;BME280;53299;52.160;7.556;2022-12-11T07:58:29;100661.34;;;15.45;38.89
66484;BME280;53299;52.160;7.556;2022-12-11T08:00:54;100658.69;;;15.45;38.76
66484;BME280;53299;52.160;7.556;2022-12-11T08:03:19;100666.63;;;15.45;38.77
66484;BME280;53299;52.160;7.556;2022-12-11T08:05:49;100660.50;;;15.45;38.93
66484;BME280;53299;52.160;7.556;2022-12-11T08:08:15;100665.81;;;15.45;38.88
66484;BME280;53299;52.160;7.556;2022-12-11T08:10:41;100660.50;;;15.45;38.91
66484;BME280;53299;52.160;7.556;2022-12-11T08:13:06;100653.56;;;15.44;39.02
66484;BME280;53299;52.160;7.556;2022-12-11T08:15:31;100660.50;;;15.45;39.09
66484;BME280;53299;52.160;7.556;2022-12-11T08:17:57;100654.41;;;15.44;39.00
66484;BME280;53299;52.160;7.556;2022-12-11T08:20:22;100658.00;;;15.43;39.14
66484;BME280;53299;52.160;7.556;2022-12-11T08:22:47;100660.50;;;15.45;39.14
66484;BME280;53299;52.160;7.556;2022-12-11T08:25:13;100658.88;;;15.44;39.08
66484;BME280;53299;52.160;7.556;2022-12-11T08:27:38;100657.19;;;15.43;39.15
66484;BME280;53299;52.160;7.556;2022-12-11T08:30:04;100652.72;;;15.43;39.08
66484;BME280;53299;52.160;7.556;2022-12-11T08:32:29;100653.56;;;15.44;39.17
66484;BME280;53299;52.160;7.556;2022-12-11T08:34:54;100653.72;;;15.42;39.22
66484;BME280;53299;52.160;7.556;2022-12-11T08:37:19;100660.84;;;15.41;39.68
66484;BME280;53299;52.160;7.556;2022-12-11T08:39:45;100651.22;;;15.40;39.21
66484;BME280;53299;52.160;7.556;2022-12-11T08:42:10;100663.47;;;15.41;39.30
66484;BME280;53299;52.160;7.556;2022-12-11T08:44:35;100660.84;;;15.41;39.17
66484;BME280;53299;52.160;7.556;2022-12-11T08:47:00;100659.97;;;15.41;39.15
66484;BME280;53299;52.160;7.556;2022-12-11T08:49:26;100659.16;;;15.40;39.38
66484;BME280;53299;52.160;7.556;2022-12-11T08:51:51;100661.81;;;15.40;39.41
66484;BME280;53299;52.160;7.556;2022-12-11T08:54:16;100658.34;;;15.40;39.52
66484;BME280;53299;52.160;7.556;2022-12-11T08:56:41;100667.09;;;15.40;39.26
66484;BME280;53299;52.160;7.556;2022-12-11T08:59:07;100670.56;;;15.41;39.37
66484;BME280;53299;52.160;7.556;2022-12-11T09:01:32;100663.63;;;15.40;39.30
66484;BME280;53299;52.160;7.556;2022-12-11T09:03:57;100657.50;;;15.39;39.48
66484;BME280;53299;52.160;7.556;2022-12-11T09:06:25;100662.81;;;15.39;39.32
66484;BME280;53299;52.160;7.556;2022-12-11T09:08:52;100657.50;;;15.39;39.48
66484;BME280;53299;52.160;7.556;2022-12-11T09:11:20;100654.88;;;15.39;39.30
66484;BME280;53299;52.160;7.556;2022-12-11T09:13:46;100654.88;;;15.39;39.61
66484;BME280;53299;52.160;7.556;2022-12-11T09:16:15;100661.13;;;15.38;39.43
66484;BME280;53299;52.160;7.556;2022-12-11T09:18:40;100658.47;;;15.38;39.56
66484;BME280;53299;52.160;7.556;2022-12-11T09:21:08;100660.97;;;15.40;39.52
66484;BME280;53299;52.160;7.556;2022-12-11T09:23:34;100657.50;;;15.39;39.64
66484;BME280;53299;52.160;7.556;2022-12-11T09:26:03;100657.50;;;15.39;39.65
66484;BME280;53299;52.160;7.556;2022-12-11T09:28:30;100652.22;;;15.39;39.80
66484;BME280;53299;52.160;7.556;2022-12-11T09:30:55;100646.25;;;15.37;39.78
66484;BME280;53299;52.160;7.556;2022-12-11T09:33:20;100639.16;;;15.38;39.42
66484;BME280;53299;52.160;7.556;2022-12-11T09:35:56;100643.59;;;15.37;39.79
66484;BME280;53299;52.160;7.556;2022-12-11T09:38:21;100640.81;;;15.39;39.84
66484;BME280;53299;52.160;7.556;2022-12-11T09:40:46;100634.69;;;15.38;39.95
66484;BME280;53299;52.160;7.556;2022-12-11T09:43:37;100633.03;;;15.37;39.86
66484;BME280;53299;52.160;7.556;2022-12-11T09:46:09;100633.84;;;15.38;39.81
66484;BME280;53299;52.160;7.556;2022-12-11T09:48:37;100625.09;;;15.37;40.02
66484;BME280;53299;52.160;7.556;2022-12-11T09:51:12;100624.09;;;15.38;40.06
66484;BME280;53299;52.160;7.556;2022-12-11T09:53:38;100622.44;;;15.37;40.16
66484;BME280;53299;52.160;7.556;2022-12-11T09:59:01;100619.81;;;15.37;40.19
66484;BME280;53299;52.160;7.556;2022-12-11T10:01:38;100622.44;;;15.37;40.18
66484;BME280;53299;52.160;7.556;2022-12-11T10:04:18;100621.63;;;15.37;40.23
66484;BME280;53299;52.160;7.556;2022-12-11T10:09:26;100625.91;;;15.38;40.42
66484;BME280;53299;52.160;7.556;2022-12-11T10:17:40;100627.75;;;15.37;40.38
66484;BME280;53299;52.160;7.556;2022-12-11T10:22:37;100627.06;;;15.35;40.40
66484;BME280;53299;52.160;7.556;2022-12-11T10:25:04;100629.72;;;15.35;40.51
66484;BME280;53299;52.160;7.556;2022-12-11T10:27:33;100627.06;;;15.35;40.49
66484;BME280;53299;52.160;7.556;2022-12-11T10:35:47;100634.19;;;15.35;40.40
66484;BME280;53299;52.160;7.556;2022-12-11T10:38:46;100634.31;;;15.33;40.46
66484;BME280;53299;52.160;7.556;2022-12-11T10:43:45;100630.72;;;15.34;40.46
66484;BME280;53299;52.160;7.556;2022-12-11T10:46:37;100629.88;;;15.34;40.48
66484;BME280;53299;52.160;7.556;2022-12-11T10:49:02;100632.53;;;15.34;40.41
66484;BME280;53299;52.160;7.556;2022-12-11T10:54:00;100627.25;;;15.34;40.51
66484;BME280;53299;52.160;7.556;2022-12-11T10:56:30;100625.56;;;15.33;40.65
66484;BME280;53299;52.160;7.556;2022-12-11T10:58:59;100612.34;;;15.33;40.48
66484;BME280;53299;52.160;7.556;2022-12-11T11:01:27;100611.53;;;15.32;40.57
66484;BME280;53299;52.160;7.556;2022-12-11T11:04:02;100609.69;;;15.33;40.59
66484;BME280;53299;52.160;7.556;2022-12-11T11:06:29;100616.66;;;15.34;40.47
66484;BME280;53299;52.160;7.556;2022-12-11T11:08:59;100621.09;;;15.33;40.67
66484;BME280;53299;52.160;7.556;2022-12-11T11:11:32;100615.81;;;15.33;40.68
66484;BME280;53299;52.160;7.556;2022-12-11T11:14:26;100622.78;;;15.34;40.87
66484;BME280;53299;52.160;7.556;2022-12-11T11:16:54;100617.16;;;15.37;41.50
66484;BME280;53299;52.160;7.556;2022-12-11T11:19:28;100609.91;;;15.39;41.50
66484;BME280;53299;52.160;7.556;2022-12-11T11:22:05;100613.22;;;15.41;41.51
66484;BME280;53299;52.160;7.556;2022-12-11T11:27:33;100598.69;;;15.46;41.28
66484;BME280;53299;52.160;7.556;2022-12-11T11:30:03;100597.53;;;15.48;41.25
66484;BME280;53299;52.160;7.556;2022-12-11T11:32:40;100600.84;;;15.50;41.24
66484;BME280;53299;52.160;7.556;2022-12-11T11:35:17;100594.75;;;15.50;41.08
66484;BME280;53299;52.160;7.556;2022-12-11T11:37:53;100598.06;;;15.52;40.83
66484;BME280;53299;52.160;7.556;2022-12-11T11:40:24;100595.25;;;15.53;40.98
66484;BME280;53299;52.160;7.556;2022-12-11T11:45:32;100587.16;;;15.55;40.83
66484;BME280;53299;52.160;7.556;2022-12-11T11:48:10;100588.81;;;15.56;40.95
66484;BME280;53299;52.160;7.556;2022-12-11T11:50:40;100592.13;;;15.58;40.76
66484;BME280;53299;52.160;7.556;2022-12-11T11:53:14;100586.00;;;15.57;40.49
66484;BME280;53299;52.160;7.556;2022-12-11T11:56:01;100590.47;;;15.57;40.46
66484;BME280;53299;52.160;7.556;2022-12-11T11:58:36;100591.28;;;15.57;40.87
66484;BME280;53299;52.160;7.556;2022-12-11T12:01:03;100586.81;;;15.58;40.86
66484;BME280;53299;52.160;7.556;2022-12-11T12:03:29;100586.66;;;15.59;40.87
66484;BME280;53299;52.160;7.556;2022-12-11T12:06:01;100579.41;;;15.61;41.07
66484;BME280;53299;52.160;7.556;2022-12-11T12:08:43;100571.47;;;15.61;41.16
66484;BME280;53299;52.160;7.556;2022-12-11T12:11:41;100573.78;;;15.65;41.14
66484;BME280;53299;52.160;7.556;2022-12-11T12:14:27;100576.44;;;15.65;41.16
66484;BME280;53299;52.160;7.556;2022-12-11T12:17:10;100577.25;;;15.65;40.95
66484;BME280;53299;52.160;7.556;2022-12-11T12:20:02;100578.25;;;15.64;41.06
66484;BME280;53299;52.160;7.556;2022-12-11T12:23:15;100579.25;;;15.63;40.99
66484;BME280;53299;52.160;7.556;2022-12-11T12:25:37;100586.53;;;15.61;41.01
66484;BME280;53299;52.160;7.556;2022-12-11T12:36:02;100577.91;;;15.59;41.34
66484;BME280;53299;52.160;7.556;2022-12-11T12:38:46;100570.13;;;15.57;41.21
66484;BME280;53299;52.160;7.556;2022-12-11T12:41:21;100575.59;;;15.56;41.22
66484;BME280;53299;52.160;7.556;2022-12-11T12:44:05;100574.75;;;15.55;41.22
66484;BME280;53299;52.160;7.556;2022-12-11T12:46:58;100575.75;;;15.54;41.24
66484;BME280;53299;52.160;7.556;2022-12-11T12:49:29;100574.91;;;15.54;41.38
66484;BME280;53299;52.160;7.556;2022-12-11T12:51:57;100562.66;;;15.53;41.31
66484;BME280;53299;52.160;7.556;2022-12-11T12:54:26;100574.09;;;15.53;41.44
66484;BME280;53299;52.160;7.556;2022-12-11T12:56:52;100570.78;;;15.51;41.34
66484;BME280;53299;52.160;7.556;2022-12-11T12:59:23;100568.97;;;15.52;41.54
66484;BME280;53299;52.160;7.556;2022-12-11T13:01:52;100577.72;;;15.52;41.51
66484;BME280;53299;52.160;7.556;2022-12-11T13:04:54;100568.13;;;15.51;41.53
66484;BME280;53299;52.160;7.556;2022-12-11T13:07:24;100567.28;;;15.51;41.51
66484;BME280;53299;52.160;7.556;2022-12-11T13:09:59;100575.22;;;15.51;41.68
66484;BME280;53299;52.160;7.556;2022-12-11T13:12:44;100558.53;;;15.50;41.53
66484;BME280;53299;52.160;7.556;2022-12-11T13:15:24;100567.47;;;15.49;41.57
66484;BME280;53299;52.160;7.556;2022-12-11T13:17:50;100569.28;;;15.49;41.89
66484;BME280;53299;52.160;7.556;2022-12-11T13:20:18;100564.00;;;15.49;41.77
66484;BME280;53299;52.160;7.556;2022-12-11T13:25:32;100566.63;;;15.49;41.77
66484;BME280;53299;52.160;7.556;2022-12-11T13:28:26;100564.00;;;15.49;41.91
66484;BME280;53299;52.160;7.556;2022-12-11T13:33:46;100562.31;;;15.48;41.99
66484;BME280;53299;52.160;7.556;2022-12-11T13:38:42;100570.25;;;15.48;41.97
66484;BME280;53299;52.160;7.556;2022-12-11T13:41:11;100575.53;;;15.48;41.86
66484;BME280;53299;52.160;7.556;2022-12-11T13:43:38;100574.72;;;15.47;41.97
66484;BME280;53299;52.160;7.556;2022-12-11T13:46:08;100572.91;;;15.48;42.10
66484;BME280;53299;52.160;7.556;2022-12-11T13:48:44;100572.22;;;15.46;41.97
66484;BME280;53299;52.160;7.556;2022-12-11T13:51:19;100580.84;;;15.48;42.02
66484;BME280;53299;52.160;7.556;2022-12-11T13:53:45;100573.91;;;15.47;42.01
66484;BME280;53299;52.160;7.556;2022-12-11T13:56:21;100574.72;;;15.47;41.96
66484;BME280;53299;52.160;7.556;2022-12-11T13:58:47;100574.72;;;15.47;41.95
66484;BME280;53299;52.160;7.556;2022-12-11T14:01:22;100571.25;;;15.47;42.04
66484;BME280;53299;52.160;7.556;2022-12-11T14:04:01;100579.19;;;15.47;41.96